sensor_id;sensor_type;location;lat;lon;timestamp;pressure;altitude;pressure_sealevel;temperature;humidity
17025;BME280;8629;42.496;25.620;2024-03-08T00:00:17;96570.72;;;4.10;86.47
17025;BME280;8629;42.496;25.620;2024-03-08T00:02:45;96575.69;;;4.06;87.01
17025;BME280;8629;42.496;25.620;2024-03-08T00:05:13;96568.78;;;4.00;86.97
17025;BME280;8629;42.496;25.620;2024-03-08T00:07:41;96587.03;;;4.07;86.67
17025;BME280;8629;42.496;25.620;2024-03-08T00:10:09;96567.25;;;4.04;86.78
17025;BME280;8629;42.496;25.620;2024-03-08T00:12:39;96564.59;;;4.04;86.29
17025;BME280;8629;42.496;25.620;2024-03-08T00:15:08;96542.88;;;3.75;87.42
17025;BME280;8629;42.496;25.620;2024-03-08T00:17:35;96517.28;;;3.87;87.19
17025;BME280;8629;42.496;25.620;2024-03-08T00:20:01;96557.97;;;4.02;87.14
17025;BME280;8629;42.496;25.620;2024-03-08T00:22:33;96530.97;;;3.89;86.99
17025;BME280;8629;42.496;25.620;2024-03-08T00:25:01;96533.19;;;3.76;86.97
17025;BME280;8629;42.496;25.620;2024-03-08T00:27:28;96551.00;;;3.90;87.50
17025;BME280;8629;42.496;25.620;2024-03-08T00:29:58;96551.31;;;3.94;87.70
17025;BME280;8629;42.496;25.620;2024-03-08T00:32:25;96554.25;;;3.98;87.48
17025;BME280;8629;42.496;25.620;2024-03-08T00:34:53;96543.34;;;3.89;87.65
17025;BME280;8629;42.496;25.620;2024-03-08T00:37:21;96554.31;;;4.03;87.14
17025;BME280;8629;42.496;25.620;2024-03-08T00:39:48;96551.91;;;4.01;87.45
17025;BME280;8629;42.496;25.620;2024-03-08T00:42:15;96565.56;;;3.98;87.34
17025;BME280;8629;42.496;25.620;2024-03-08T00:44:42;96552.16;;;3.78;87.84
17025;BME280;8629;42.496;25.620;2024-03-08T00:47:10;96556.66;;;3.99;87.44
17025;BME280;8629;42.496;25.620;2024-03-08T00:49:37;96509.84;;;3.62;87.41
17025;BME280;8629;42.496;25.620;2024-03-08T00:52:05;96555.03;;;3.98;87.19
17025;BME280;8629;42.496;25.620;2024-03-08T00:54:33;96553.72;;;3.96;87.37
17025;BME280;8629;42.496;25.620;2024-03-08T00:57:01;96517.00;;;3.67;87.46
17025;BME280;8629;42.496;25.620;2024-03-08T00:59:29;96558.09;;;3.90;87.47
17025;BME280;8629;42.496;25.620;2024-03-08T01:01:58;96550.19;;;3.90;87.04
17025;BME280;8629;42.496;25.620;2024-03-08T01:04:26;96551.19;;;3.84;87.08
17025;BME280;8629;42.496;25.620;2024-03-08T01:06:54;96520.63;;;3.61;87.32
17025;BME280;8629;42.496;25.620;2024-03-08T01:09:21;96565.88;;;4.02;87.20
17025;BME280;8629;42.496;25.620;2024-03-08T01:11:48;96552.53;;;3.86;87.33
17025;BME280;8629;42.496;25.620;2024-03-08T01:14:15;96534.56;;;3.61;87.59
17025;BME280;8629;42.496;25.620;2024-03-08T01:16:42;96541.41;;;3.62;88.04
17025;BME280;8629;42.496;25.620;2024-03-08T01:19:09;96533.53;;;3.62;87.63
17025;BME280;8629;42.496;25.620;2024-03-08T01:21:37;96529.84;;;3.63;87.94
17025;BME280;8629;42.496;25.620;2024-03-08T01:24:04;96546.03;;;3.72;87.41
17025;BME280;8629;42.496;25.620;2024-03-08T01:26:31;96569.66;;;3.89;87.33
17025;BME280;8629;42.496;25.620;2024-03-08T01:28:59;96564.34;;;3.84;87.55
17025;BME280;8629;42.496;25.620;2024-03-08T01:31:28;96569.31;;;3.80;86.99
17025;BME280;8629;42.496;25.620;2024-03-08T01:33:56;96541.72;;;3.66;86.66
17025;BME280;8629;42.496;25.620;2024-03-08T01:36:22;96565.94;;;3.85;87.19
17025;BME280;8629;42.496;25.620;2024-03-08T01:38:51;96560.41;;;3.86;87.30
17025;BME280;8629;42.496;25.620;2024-03-08T01:41:18;96532.25;;;3.65;87.02
17025;BME280;8629;42.496;25.620;2024-03-08T01:43:45;96525.88;;;3.61;86.94
17025;BME280;8629;42.496;25.620;2024-03-08T01:46:15;96567.34;;;3.92;86.73
17025;BME280;8629;42.496;25.620;2024-03-08T01:48:43;96533.69;;;3.56;86.17
17025;BME280;8629;42.496;25.620;2024-03-08T01:51:10;96551.09;;;3.57;86.41
17025;BME280;8629;42.496;25.620;2024-03-08T01:53:41;96518.41;;;3.36;86.58
17025;BME280;8629;42.496;25.620;2024-03-08T01:56:12;96526.06;;;3.37;86.48
17025;BME280;8629;42.496;25.620;2024-03-08T01:58:41;96575.00;;;3.72;87.06
17025;BME280;8629;42.496;25.620;2024-03-08T02:01:10;96568.50;;;3.80;86.46
17025;BME280;8629;42.496;25.620;2024-03-08T02:03:40;96572.34;;;3.72;86.82
17025;BME280;8629;42.496;25.620;2024-03-08T02:06:09;96568.63;;;3.68;86.95
17025;BME280;8629;42.496;25.620;2024-03-08T02:08:36;96541.09;;;3.59;87.07
17025;BME280;8629;42.496;25.620;2024-03-08T02:11:04;96567.16;;;3.77;87.33
17025;BME280;8629;42.496;25.620;2024-03-08T02:13:32;96535.94;;;3.47;87.06
17025;BME280;8629;42.496;25.620;2024-03-08T02:16:00;96543.31;;;3.67;86.33
17025;BME280;8629;42.496;25.620;2024-03-08T02:18:28;96546.38;;;3.59;86.10
17025;BME280;8629;42.496;25.620;2024-03-08T02:20:57;96574.72;;;3.74;86.81
17025;BME280;8629;42.496;25.620;2024-03-08T02:23:25;96572.66;;;3.76;86.47
17025;BME280;8629;42.496;25.620;2024-03-08T02:25:52;96531.25;;;3.49;87.11
17025;BME280;8629;42.496;25.620;2024-03-08T02:28:20;96557.03;;;3.69;87.00
17025;BME280;8629;42.496;25.620;2024-03-08T02:30:48;96579.84;;;3.80;86.47
17025;BME280;8629;42.496;25.620;2024-03-08T02:33:16;96550.28;;;3.56;86.97
17025;BME280;8629;42.496;25.620;2024-03-08T02:35:43;96578.31;;;3.67;86.83
17025;BME280;8629;42.496;25.620;2024-03-08T02:38:13;96528.41;;;3.34;87.09
17025;BME280;8629;42.496;25.620;2024-03-08T02:40:41;96564.19;;;3.74;86.33
17025;BME280;8629;42.496;25.620;2024-03-08T02:43:08;96573.63;;;3.70;87.17
17025;BME280;8629;42.496;25.620;2024-03-08T02:45:35;96569.16;;;3.70;87.38
17025;BME280;8629;42.496;25.620;2024-03-08T02:48:02;96499.47;;;3.34;87.33
17025;BME280;8629;42.496;25.620;2024-03-08T02:50:29;96529.03;;;3.63;86.50
17025;BME280;8629;42.496;25.620;2024-03-08T02:52:55;96533.09;;;3.49;86.71
17025;BME280;8629;42.496;25.620;2024-03-08T02:55:23;96568.09;;;3.71;86.80
17025;BME280;8629;42.496;25.620;2024-03-08T02:57:51;96527.09;;;3.36;86.72
17025;BME280;8629;42.496;25.620;2024-03-08T03:00:20;96559.50;;;3.76;86.61
17025;BME280;8629;42.496;25.620;2024-03-08T03:02:48;96564.78;;;3.76;86.57
17025;BME280;8629;42.496;25.620;2024-03-08T03:05:17;96558.38;;;3.72;87.13
17025;BME280;8629;42.496;25.620;2024-03-08T03:07:45;96526.84;;;3.55;86.67
17025;BME280;8629;42.496;25.620;2024-03-08T03:10:12;96507.41;;;3.39;86.88
17025;BME280;8629;42.496;25.620;2024-03-08T03:12:44;96538.63;;;3.52;86.91
17025;BME280;8629;42.496;25.620;2024-03-08T03:15:11;96528.09;;;3.52;86.97
17025;BME280;8629;42.496;25.620;2024-03-08T03:17:38;96555.13;;;3.64;87.20
17025;BME280;8629;42.496;25.620;2024-03-08T03:20:06;96553.22;;;3.60;87.23
17025;BME280;8629;42.496;25.620;2024-03-08T03:22:36;96565.25;;;3.56;87.10
17025;BME280;8629;42.496;25.620;2024-03-08T03:25:04;96549.97;;;3.53;87.24
17025;BME280;8629;42.496;25.620;2024-03-08T03:27:32;96519.53;;;3.40;87.39
17025;BME280;8629;42.496;25.620;2024-03-08T03:30:00;96483.63;;;3.12;87.73
17025;BME280;8629;42.496;25.620;2024-03-08T03:32:46;96544.50;;;3.37;87.32
17025;BME280;8629;42.496;25.620;2024-03-08T03:35:13;96531.75;;;3.12;87.23
17025;BME280;8629;42.496;25.620;2024-03-08T03:37:41;96525.84;;;3.22;88.24
17025;BME280;8629;42.496;25.620;2024-03-08T03:40:11;96568.16;;;3.54;87.70
17025;BME280;8629;42.496;25.620;2024-03-08T03:42:39;96562.03;;;3.49;87.40
17025;BME280;8629;42.496;25.620;2024-03-08T03:45:08;96563.34;;;3.51;87.53
17025;BME280;8629;42.496;25.620;2024-03-08T03:47:36;96569.66;;;3.50;88.17
17025;BME280;8629;42.496;25.620;2024-03-08T03:50:04;96560.19;;;3.49;88.14
17025;BME280;8629;42.496;25.620;2024-03-08T03:52:31;96564.72;;;3.54;87.76
17025;BME280;8629;42.496;25.620;2024-03-08T03:54:58;96564.66;;;3.49;87.54
17025;BME280;8629;42.496;25.620;2024-03-08T03:57:25;96568.09;;;3.49;87.99
17025;BME280;8629;42.496;25.620;2024-03-08T03:59:52;96546.56;;;3.35;88.57
17025;BME280;8629;42.496;25.620;2024-03-08T04:02:20;96566.16;;;3.61;87.81
17025;BME280;8629;42.496;25.620;2024-03-08T04:04:47;96574.69;;;3.52;87.93
17025;BME280;8629;42.496;25.620;2024-03-08T04:07:14;96567.66;;;3.57;88.27
17025;BME280;8629;42.496;25.620;2024-03-08T04:09:42;96526.00;;;3.32;87.61
17025;BME280;8629;42.496;25.620;2024-03-08T04:12:09;96559.47;;;3.37;87.54
17025;BME280;8629;42.496;25.620;2024-03-08T04:14:36;96544.75;;;3.19;87.80
17025;BME280;8629;42.496;25.620;2024-03-08T04:17:03;96555.56;;;3.23;87.99
17025;BME280;8629;42.496;25.620;2024-03-08T04:19:31;96544.09;;;3.29;88.08
17025;BME280;8629;42.496;25.620;2024-03-08T04:21:59;96564.47;;;3.55;88.12
17025;BME280;8629;42.496;25.620;2024-03-08T04:24:26;96523.22;;;3.22;87.53
17025;BME280;8629;42.496;25.620;2024-03-08T04:26:56;96570.63;;;3.61;87.75
17025;BME280;8629;42.496;25.620;2024-03-08T04:29:23;96578.50;;;3.44;88.08
17025;BME280;8629;42.496;25.620;2024-03-08T04:31:50;96572.78;;;3.47;87.85
17025;BME280;8629;42.496;25.620;2024-03-08T04:34:19;96590.16;;;3.48;87.92
17025;BME280;8629;42.496;25.620;2024-03-08T04:36:48;96502.13;;;2.83;88.56
17025;BME280;8629;42.496;25.620;2024-03-08T04:39:18;96590.00;;;3.38;88.63
17025;BME280;8629;42.496;25.620;2024-03-08T04:41:47;96513.00;;;3.09;88.39
17025;BME280;8629;42.496;25.620;2024-03-08T04:44:13;96576.66;;;3.61;87.93
17025;BME280;8629;42.496;25.620;2024-03-08T04:46:40;96578.09;;;3.69;88.39
17025;BME280;8629;42.496;25.620;2024-03-08T04:49:07;96569.88;;;3.65;87.94
17025;BME280;8629;42.496;25.620;2024-03-08T04:51:37;96588.78;;;3.62;87.83
17025;BME280;8629;42.496;25.620;2024-03-08T04:54:05;96567.97;;;3.44;87.66
17025;BME280;8629;42.496;25.620;2024-03-08T04:56:32;96559.69;;;3.52;87.85
17025;BME280;8629;42.496;25.620;2024-03-08T04:58:59;96583.53;;;3.62;87.75
17025;BME280;8629;42.496;25.620;2024-03-08T05:01:25;96583.22;;;3.42;88.05
17025;BME280;8629;42.496;25.620;2024-03-08T05:03:52;96582.16;;;3.60;88.25
17025;BME280;8629;42.496;25.620;2024-03-08T05:06:20;96596.84;;;3.73;88.05
17025;BME280;8629;42.496;25.620;2024-03-08T05:08:48;96564.81;;;3.42;87.47
17025;BME280;8629;42.496;25.620;2024-03-08T05:11:17;96600.84;;;3.41;88.77
17025;BME280;8629;42.496;25.620;2024-03-08T05:13:44;96556.84;;;3.37;88.46
17025;BME280;8629;42.496;25.620;2024-03-08T05:16:11;96604.53;;;3.79;88.46
17025;BME280;8629;42.496;25.620;2024-03-08T05:18:41;96580.03;;;3.57;87.46
17025;BME280;8629;42.496;25.620;2024-03-08T05:21:08;96548.47;;;3.23;87.98
17025;BME280;8629;42.496;25.620;2024-03-08T05:23:35;96537.41;;;3.04;88.03
17025;BME280;8629;42.496;25.620;2024-03-08T05:26:04;96614.16;;;3.52;88.44
17025;BME280;8629;42.496;25.620;2024-03-08T05:28:32;96616.97;;;3.45;88.82
17025;BME280;8629;42.496;25.620;2024-03-08T05:30:59;96597.41;;;3.07;88.99
17025;BME280;8629;42.496;25.620;2024-03-08T05:33:26;96615.41;;;3.32;89.05
17025;BME280;8629;42.496;25.620;2024-03-08T05:35:53;96573.03;;;3.12;89.25
17025;BME280;8629;42.496;25.620;2024-03-08T05:38:20;96622.06;;;3.35;89.18
17025;BME280;8629;42.496;25.620;2024-03-08T05:40:47;96630.00;;;3.40;89.31
17025;BME280;8629;42.496;25.620;2024-03-08T05:43:13;96626.03;;;3.37;89.52
17025;BME280;8629;42.496;25.620;2024-03-08T05:45:44;96625.78;;;3.39;89.11
17025;BME280;8629;42.496;25.620;2024-03-08T05:48:11;96568.56;;;3.12;89.08
17025;BME280;8629;42.496;25.620;2024-03-08T05:50:38;96619.34;;;3.47;89.21
17025;BME280;8629;42.496;25.620;2024-03-08T05:53:05;96577.88;;;3.20;89.04
17025;BME280;8629;42.496;25.620;2024-03-08T05:55:33;96603.94;;;3.55;88.58
17025;BME280;8629;42.496;25.620;2024-03-08T05:58:00;96633.69;;;3.56;88.54
17025;BME280;8629;42.496;25.620;2024-03-08T06:00:27;96643.41;;;3.55;88.91
17025;BME280;8629;42.496;25.620;2024-03-08T06:02:55;96643.59;;;3.65;88.53
17025;BME280;8629;42.496;25.620;2024-03-08T06:05:22;96642.31;;;3.68;88.17
17025;BME280;8629;42.496;25.620;2024-03-08T06:07:50;96651.63;;;3.59;88.13
17025;BME280;8629;42.496;25.620;2024-03-08T06:10:19;96632.50;;;3.47;88.42
17025;BME280;8629;42.496;25.620;2024-03-08T06:12:46;96626.53;;;3.34;88.73
17025;BME280;8629;42.496;25.620;2024-03-08T06:15:12;96653.06;;;3.50;88.73
17025;BME280;8629;42.496;25.620;2024-03-08T06:17:41;96654.84;;;3.61;88.78
17025;BME280;8629;42.496;25.620;2024-03-08T06:20:10;96619.50;;;3.40;88.87
17025;BME280;8629;42.496;25.620;2024-03-08T06:22:38;96643.25;;;3.62;88.48
17025;BME280;8629;42.496;25.620;2024-03-08T06:25:06;96658.91;;;3.68;88.85
17025;BME280;8629;42.496;25.620;2024-03-08T06:27:33;96650.28;;;3.73;88.16
17025;BME280;8629;42.496;25.620;2024-03-08T06:30:00;96658.72;;;3.75;88.47
17025;BME280;8629;42.496;25.620;2024-03-08T06:32:26;96661.25;;;3.87;88.05
17025;BME280;8629;42.496;25.620;2024-03-08T06:34:53;96634.47;;;3.73;88.39
17025;BME280;8629;42.496;25.620;2024-03-08T06:37:21;96629.16;;;3.68;88.03
17025;BME280;8629;42.496;25.620;2024-03-08T06:39:49;96658.25;;;3.78;87.83
17025;BME280;8629;42.496;25.620;2024-03-08T06:42:16;96664.00;;;3.92;87.70
17025;BME280;8629;42.496;25.620;2024-03-08T06:44:43;96672.09;;;3.90;87.95
17025;BME280;8629;42.496;25.620;2024-03-08T06:47:15;96656.72;;;3.99;87.72
17025;BME280;8629;42.496;25.620;2024-03-08T06:49:42;96649.94;;;4.03;87.65
17025;BME280;8629;42.496;25.620;2024-03-08T06:52:08;96641.72;;;4.00;87.78
17025;BME280;8629;42.496;25.620;2024-03-08T06:54:37;96633.41;;;3.91;87.36
17025;BME280;8629;42.496;25.620;2024-03-08T06:57:04;96624.00;;;3.78;87.56
17025;BME280;8629;42.496;25.620;2024-03-08T06:59:31;96682.16;;;3.93;88.08
17025;BME280;8629;42.496;25.620;2024-03-08T07:01:59;96677.78;;;3.99;88.48
17025;BME280;8629;42.496;25.620;2024-03-08T07:04:26;96611.84;;;3.55;87.89
17025;BME280;8629;42.496;25.620;2024-03-08T07:06:55;96683.59;;;4.01;88.33
17025;BME280;8629;42.496;25.620;2024-03-08T07:09:23;96687.28;;;4.00;88.02
17025;BME280;8629;42.496;25.620;2024-03-08T07:11:53;96682.75;;;4.17;88.02
17025;BME280;8629;42.496;25.620;2024-03-08T07:14:21;96692.84;;;4.04;87.73
17025;BME280;8629;42.496;25.620;2024-03-08T07:16:48;96689.97;;;4.05;87.22
17025;BME280;8629;42.496;25.620;2024-03-08T07:19:18;96677.69;;;4.11;86.74
17025;BME280;8629;42.496;25.620;2024-03-08T07:21:45;96692.50;;;4.34;86.75
17025;BME280;8629;42.496;25.620;2024-03-08T07:24:13;96697.88;;;4.44;85.79
17025;BME280;8629;42.496;25.620;2024-03-08T07:26:54;96674.38;;;4.21;85.55
17025;BME280;8629;42.496;25.620;2024-03-08T07:29:21;96679.78;;;4.31;83.90
17025;BME280;8629;42.496;25.620;2024-03-08T07:31:48;96707.72;;;4.32;85.96
17025;BME280;8629;42.496;25.620;2024-03-08T07:34:26;96667.06;;;4.06;85.15
17025;BME280;8629;42.496;25.620;2024-03-08T07:36:53;96675.53;;;4.08;85.00
17025;BME280;8629;42.496;25.620;2024-03-08T07:39:21;96654.22;;;4.09;84.78
17025;BME280;8629;42.496;25.620;2024-03-08T07:41:49;96710.50;;;4.42;85.15
17025;BME280;8629;42.496;25.620;2024-03-08T07:44:21;96683.16;;;4.26;84.67
17025;BME280;8629;42.496;25.620;2024-03-08T07:46:49;96680.84;;;4.30;84.63
17025;BME280;8629;42.496;25.620;2024-03-08T07:49:16;96708.88;;;4.58;84.94
17025;BME280;8629;42.496;25.620;2024-03-08T07:51:43;96681.69;;;4.35;83.96
17025;BME280;8629;42.496;25.620;2024-03-08T07:54:10;96682.13;;;4.27;83.82
17025;BME280;8629;42.496;25.620;2024-03-08T07:56:38;96710.41;;;4.54;83.62
17025;BME280;8629;42.496;25.620;2024-03-08T07:59:05;96673.66;;;4.25;83.84
17025;BME280;8629;42.496;25.620;2024-03-08T08:01:34;96690.13;;;4.37;83.89
17025;BME280;8629;42.496;25.620;2024-03-08T08:04:01;96666.00;;;4.24;83.83
17025;BME280;8629;42.496;25.620;2024-03-08T08:06:28;96709.53;;;4.48;84.37
17025;BME280;8629;42.496;25.620;2024-03-08T08:08:57;96717.53;;;4.53;84.85
17025;BME280;8629;42.496;25.620;2024-03-08T08:11:26;96720.75;;;4.60;84.05
17025;BME280;8629;42.496;25.620;2024-03-08T08:13:53;96694.13;;;4.40;83.82
17025;BME280;8629;42.496;25.620;2024-03-08T08:16:20;96705.03;;;4.49;84.16
17025;BME280;8629;42.496;25.620;2024-03-08T08:18:48;96702.19;;;4.50;84.37
17025;BME280;8629;42.496;25.620;2024-03-08T08:21:15;96745.41;;;4.49;84.59
17025;BME280;8629;42.496;25.620;2024-03-08T08:23:43;96722.78;;;4.53;84.02
17025;BME280;8629;42.496;25.620;2024-03-08T08:26:10;96713.16;;;4.42;84.81
17025;BME280;8629;42.496;25.620;2024-03-08T08:28:40;96686.13;;;4.30;84.46
17025;BME280;8629;42.496;25.620;2024-03-08T08:31:08;96734.53;;;4.46;84.16
17025;BME280;8629;42.496;25.620;2024-03-08T08:33:35;96725.34;;;4.48;84.57
17025;BME280;8629;42.496;25.620;2024-03-08T08:36:04;96726.75;;;4.56;84.08
17025;BME280;8629;42.496;25.620;2024-03-08T08:38:31;96724.91;;;4.56;84.21
17025;BME280;8629;42.496;25.620;2024-03-08T08:40:58;96731.56;;;4.59;83.71
17025;BME280;8629;42.496;25.620;2024-03-08T08:43:25;96731.28;;;4.60;84.28
17025;BME280;8629;42.496;25.620;2024-03-08T08:45:52;96685.69;;;4.38;84.20
17025;BME280;8629;42.496;25.620;2024-03-08T08:48:20;96728.38;;;4.79;82.57
17025;BME280;8629;42.496;25.620;2024-03-08T08:50:46;96723.75;;;4.47;82.76
17025;BME280;8629;42.496;25.620;2024-03-08T08:53:17;96731.41;;;4.49;83.97
17025;BME280;8629;42.496;25.620;2024-03-08T08:55:44;96723.78;;;4.30;83.92
17025;BME280;8629;42.496;25.620;2024-03-08T08:58:11;96723.38;;;4.38;83.05
17025;BME280;8629;42.496;25.620;2024-03-08T09:00:39;96683.72;;;4.28;83.18
17025;BME280;8629;42.496;25.620;2024-03-08T09:03:09;96702.72;;;4.52;82.74
17025;BME280;8629;42.496;25.620;2024-03-08T09:05:40;96726.53;;;4.79;82.55
17025;BME280;8629;42.496;25.620;2024-03-08T09:08:08;96722.13;;;4.85;83.00
17025;BME280;8629;42.496;25.620;2024-03-08T09:10:36;96704.16;;;4.82;82.85
17025;BME280;8629;42.496;25.620;2024-03-08T09:13:04;96701.44;;;4.99;82.50
17025;BME280;8629;42.496;25.620;2024-03-08T09:15:31;96727.19;;;5.13;81.87
17025;BME280;8629;42.496;25.620;2024-03-08T09:17:58;96732.75;;;5.39;82.02
17025;BME280;8629;42.496;25.620;2024-03-08T09:20:25;96715.97;;;5.50;80.31
17025;BME280;8629;42.496;25.620;2024-03-08T09:22:52;96707.50;;;5.53;78.67
17025;BME280;8629;42.496;25.620;2024-03-08T09:25:19;96723.69;;;5.89;79.25
17025;BME280;8629;42.496;25.620;2024-03-08T09:27:48;96723.34;;;6.12;78.45
17025;BME280;8629;42.496;25.620;2024-03-08T09:30:15;96727.59;;;6.19;78.02
17025;BME280;8629;42.496;25.620;2024-03-08T09:32:43;96722.78;;;6.05;77.25
17025;BME280;8629;42.496;25.620;2024-03-08T09:35:10;96715.63;;;6.01;76.75
17025;BME280;8629;42.496;25.620;2024-03-08T09:37:37;96725.75;;;6.19;76.72
17025;BME280;8629;42.496;25.620;2024-03-08T09:40:06;96693.94;;;5.72;76.16
17025;BME280;8629;42.496;25.620;2024-03-08T09:42:35;96739.22;;;5.85;77.92
17025;BME280;8629;42.496;25.620;2024-03-08T09:45:08;96697.09;;;5.69;77.84
17025;BME280;8629;42.496;25.620;2024-03-08T09:47:36;96701.28;;;5.64;78.07
17025;BME280;8629;42.496;25.620;2024-03-08T09:50:05;96732.06;;;5.81;78.64
17025;BME280;8629;42.496;25.620;2024-03-08T09:52:34;96730.38;;;5.70;79.11
17025;BME280;8629;42.496;25.620;2024-03-08T09:55:04;96734.56;;;5.66;78.71
17025;BME280;8629;42.496;25.620;2024-03-08T09:57:32;96740.84;;;5.59;78.58
17025;BME280;8629;42.496;25.620;2024-03-08T09:59:59;96730.31;;;5.64;78.80
17025;BME280;8629;42.496;25.620;2024-03-08T10:02:27;96747.41;;;5.57;78.74
17025;BME280;8629;42.496;25.620;2024-03-08T10:04:57;96739.34;;;5.42;79.70
17025;BME280;8629;42.496;25.620;2024-03-08T10:07:24;96741.34;;;5.29;80.74
17025;BME280;8629;42.496;25.620;2024-03-08T10:09:52;96744.28;;;5.33;81.63
17025;BME280;8629;42.496;25.620;2024-03-08T10:12:19;96738.66;;;5.24;82.72
17025;BME280;8629;42.496;25.620;2024-03-08T10:14:46;96743.66;;;5.26;83.02
17025;BME280;8629;42.496;25.620;2024-03-08T10:17:13;96705.81;;;4.88;83.92
17025;BME280;8629;42.496;25.620;2024-03-08T10:19:49;96720.66;;;5.21;83.01
17025;BME280;8629;42.496;25.620;2024-03-08T10:22:17;96740.66;;;5.39;82.94
17025;BME280;8629;42.496;25.620;2024-03-08T10:24:45;96725.28;;;5.31;82.95
17025;BME280;8629;42.496;25.620;2024-03-08T10:27:12;96688.97;;;5.16;82.54
17025;BME280;8629;42.496;25.620;2024-03-08T10:29:39;96729.38;;;5.49;83.07
17025;BME280;8629;42.496;25.620;2024-03-08T10:32:09;96708.69;;;5.35;82.86
17025;BME280;8629;42.496;25.620;2024-03-08T10:34:41;96738.84;;;5.72;82.14
17025;BME280;8629;42.496;25.620;2024-03-08T10:37:13;96731.25;;;5.80;81.73
17025;BME280;8629;42.496;25.620;2024-03-08T10:39:47;96727.97;;;5.95;81.25
17025;BME280;8629;42.496;25.620;2024-03-08T10:42:23;96687.56;;;5.95;81.35
17025;BME280;8629;42.496;25.620;2024-03-08T10:45:02;96702.50;;;5.84;81.32
17025;BME280;8629;42.496;25.620;2024-03-08T10:47:40;96723.28;;;6.02;81.13
17025;BME280;8629;42.496;25.620;2024-03-08T10:50:16;96723.50;;;5.69;80.50
17025;BME280;8629;42.496;25.620;2024-03-08T10:52:47;96730.38;;;5.70;81.66
17025;BME280;8629;42.496;25.620;2024-03-08T10:55:17;96722.53;;;5.48;81.66
17025;BME280;8629;42.496;25.620;2024-03-08T10:57:46;96727.50;;;5.17;82.37
17025;BME280;8629;42.496;25.620;2024-03-08T11:00:14;96706.00;;;4.81;83.29
17025;BME280;8629;42.496;25.620;2024-03-08T11:02:43;96733.94;;;4.82;83.84
17025;BME280;8629;42.496;25.620;2024-03-08T11:05:15;96716.78;;;4.80;83.46
17025;BME280;8629;42.496;25.620;2024-03-08T11:07:58;96721.16;;;4.69;83.65
17025;BME280;8629;42.496;25.620;2024-03-08T11:10:25;96696.72;;;4.57;83.81
17025;BME280;8629;42.496;25.620;2024-03-08T11:12:52;96716.03;;;4.62;84.11
17025;BME280;8629;42.496;25.620;2024-03-08T11:15:19;96674.34;;;4.37;83.86
17025;BME280;8629;42.496;25.620;2024-03-08T11:17:47;96718.88;;;4.78;83.64
17025;BME280;8629;42.496;25.620;2024-03-08T11:20:16;96720.03;;;4.87;83.99
17025;BME280;8629;42.496;25.620;2024-03-08T11:22:49;96727.13;;;4.86;84.03
17025;BME280;8629;42.496;25.620;2024-03-08T11:25:33;96734.31;;;4.91;83.80
17025;BME280;8629;42.496;25.620;2024-03-08T11:28:08;96691.44;;;4.57;83.83
17025;BME280;8629;42.496;25.620;2024-03-08T11:30:42;96730.41;;;4.94;83.95
17025;BME280;8629;42.496;25.620;2024-03-08T11:33:11;96715.66;;;4.76;84.24
17025;BME280;8629;42.496;25.620;2024-03-08T11:35:41;96710.81;;;4.68;83.93
17025;BME280;8629;42.496;25.620;2024-03-08T11:38:11;96729.25;;;4.84;83.82
17025;BME280;8629;42.496;25.620;2024-03-08T11:40:39;96727.09;;;4.81;84.19
17025;BME280;8629;42.496;25.620;2024-03-08T11:43:05;96670.56;;;4.50;83.68
17025;BME280;8629;42.496;25.620;2024-03-08T11:45:33;96727.31;;;4.80;84.47
17025;BME280;8629;42.496;25.620;2024-03-08T11:48:01;96725.59;;;4.90;84.69
17025;BME280;8629;42.496;25.620;2024-03-08T11:50:30;96720.81;;;4.87;84.64
17025;BME280;8629;42.496;25.620;2024-03-08T11:53:03;96707.88;;;4.86;83.75
17025;BME280;8629;42.496;25.620;2024-03-08T11:55:30;96695.44;;;4.81;83.45
17025;BME280;8629;42.496;25.620;2024-03-08T11:58:02;96716.72;;;4.97;83.53
17025;BME280;8629;42.496;25.620;2024-03-08T12:00:29;96716.47;;;4.98;83.68
17025;BME280;8629;42.496;25.620;2024-03-08T12:03:07;96718.13;;;5.04;82.06
17025;BME280;8629;42.496;25.620;2024-03-08T12:05:35;96722.34;;;5.05;82.85
17025;BME280;8629;42.496;25.620;2024-03-08T12:08:05;96726.25;;;5.03;83.28
17025;BME280;8629;42.496;25.620;2024-03-08T12:10:34;96717.13;;;5.10;82.52
17025;BME280;8629;42.496;25.620;2024-03-08T12:13:01;96693.59;;;4.82;82.71
17025;BME280;8629;42.496;25.620;2024-03-08T12:15:29;96714.75;;;5.09;82.13
17025;BME280;8629;42.496;25.620;2024-03-08T12:17:58;96727.88;;;5.04;80.54
17025;BME280;8629;42.496;25.620;2024-03-08T12:20:26;96720.91;;;4.93;80.61
17025;BME280;8629;42.496;25.620;2024-03-08T12:22:55;96699.66;;;4.82;79.46
17025;BME280;8629;42.496;25.620;2024-03-08T12:25:26;96703.22;;;4.93;79.24
17025;BME280;8629;42.496;25.620;2024-03-08T12:28:06;96716.81;;;5.07;78.29
17025;BME280;8629;42.496;25.620;2024-03-08T12:30:45;96726.97;;;4.93;76.57
17025;BME280;8629;42.496;25.620;2024-03-08T12:33:12;96720.09;;;4.92;75.16
17025;BME280;8629;42.496;25.620;2024-03-08T12:35:39;96693.16;;;4.68;76.06
17025;BME280;8629;42.496;25.620;2024-03-08T12:38:07;96722.09;;;5.07;75.14
17025;BME280;8629;42.496;25.620;2024-03-08T12:40:35;96707.44;;;4.94;74.45
17025;BME280;8629;42.496;25.620;2024-03-08T12:43:06;96681.22;;;4.82;74.20
17025;BME280;8629;42.496;25.620;2024-03-08T12:45:33;96717.03;;;5.00;74.18
17025;BME280;8629;42.496;25.620;2024-03-08T12:48:00;96666.88;;;4.73;74.68
17025;BME280;8629;42.496;25.620;2024-03-08T12:50:28;96710.34;;;4.93;73.29
17025;BME280;8629;42.496;25.620;2024-03-08T12:52:55;96686.53;;;4.87;74.63
17025;BME280;8629;42.496;25.620;2024-03-08T12:55:22;96730.31;;;5.10;73.63
17025;BME280;8629;42.496;25.620;2024-03-08T12:57:50;96695.34;;;4.98;73.75
17025;BME280;8629;42.496;25.620;2024-03-08T13:00:18;96653.25;;;4.81;74.68
17025;BME280;8629;42.496;25.620;2024-03-08T13:02:45;96702.19;;;4.94;74.17
17025;BME280;8629;42.496;25.620;2024-03-08T13:05:13;96720.28;;;5.07;73.55
17025;BME280;8629;42.496;25.620;2024-03-08T13:07:43;96719.28;;;5.13;73.34
17025;BME280;8629;42.496;25.620;2024-03-08T13:10:11;96719.31;;;5.19;72.61
17025;BME280;8629;42.496;25.620;2024-03-08T13:12:40;96711.16;;;5.20;72.95
17025;BME280;8629;42.496;25.620;2024-03-08T13:15:09;96720.53;;;5.33;72.32